createdAt,value
2022-12-25T00:15:08.584Z,20.45
2022-12-25T00:45:11.834Z,16.40
2022-12-25T01:15:15.029Z,18.97
2022-12-25T01:45:18.444Z,17.40
2022-12-25T02:15:21.396Z,13.23
2022-12-25T02:45:24.848Z,14.07
2022-12-25T03:15:27.989Z,17.97
2022-12-25T03:45:31.142Z,14.57
2022-12-25T04:15:34.524Z,15.93
2022-12-25T04:45:37.954Z,16.50
2022-12-25T05:15:43.297Z,12.73
2022-12-25T05:45:47.003Z,11.33
2022-12-25T06:15:50.872Z,12.23
2022-12-25T06:45:54.357Z,12.07
2022-12-25T07:15:58.698Z,10.83
2022-12-25T07:46:02.595Z,8.97
2022-12-25T08:16:06.282Z,10.60
2022-12-25T08:46:09.924Z,12.80
2022-12-25T09:16:13.474Z,10.40
2022-12-25T09:46:16.388Z,9.50
2022-12-25T10:16:20.261Z,11.07
2022-12-25T10:46:23.270Z,9.33
2022-12-25T11:16:27.887Z,12.57
2022-12-25T11:46:31.008Z,15.47
2022-12-25T12:16:35.592Z,18.77
2022-12-25T12:46:38.516Z,16.37
2022-12-25T13:16:42.702Z,18.33
2022-12-25T13:46:45.502Z,14.07
2022-12-25T14:16:50.032Z,21.43
2022-12-25T14:46:52.885Z,18.55
2022-12-25T15:16:56.991Z,21.85
2022-12-25T15:46:59.939Z,16.80
2022-12-25T16:17:02.883Z,20.30
2022-12-25T16:47:06.528Z,23.35
2022-12-25T17:17:10.460Z,27.63
2022-12-25T17:47:13.266Z,25.98
2022-12-25T18:17:17.994Z,33.80
2022-12-25T18:47:20.870Z,32.97
2022-12-25T19:17:31.858Z,31.30
2022-12-25T19:47:35.311Z,24.53
2022-12-25T20:17:39.704Z,25.13
2022-12-25T20:47:42.627Z,26.20
2022-12-25T21:17:45.691Z,20.87
2022-12-25T21:48:01.606Z,23.95
2022-12-25T22:18:06.515Z,17.03
2022-12-25T22:48:09.672Z,20.10
2022-12-25T23:18:12.622Z,12.20
2022-12-25T23:48:16.168Z,13.60
